createdAt,value
2023-05-01T00:01:30.404Z,70.34
2023-05-01T00:03:57.029Z,70.36
2023-05-01T00:06:23.811Z,70.16
2023-05-01T00:08:50.354Z,70.26
2023-05-01T00:11:16.749Z,69.83
2023-05-01T00:13:43.226Z,69.00
2023-05-01T00:16:11.245Z,68.98
2023-05-01T00:18:38.457Z,68.52
2023-05-01T00:21:05.242Z,68.79
2023-05-01T00:23:31.855Z,68.47
2023-05-01T00:25:58.356Z,68.14
2023-05-01T00:28:24.765Z,68.30
2023-05-01T00:30:51.864Z,68.21
2023-05-01T00:33:18.514Z,68.04
2023-05-01T00:35:45.664Z,68.03
2023-05-01T00:38:12.806Z,67.32
2023-05-01T00:40:46.519Z,67.77
2023-05-01T00:43:13.514Z,68.03
2023-05-01T00:45:43.934Z,67.48
2023-05-01T00:48:10.952Z,66.98
2023-05-01T00:50:38.022Z,67.26
2023-05-01T00:53:05.311Z,67.18
2023-05-01T00:55:33.467Z,67.43
2023-05-01T00:58:01.723Z,67.88
2023-05-01T01:00:29.509Z,68.22
2023-05-01T01:02:56.541Z,68.55
2023-05-01T01:05:27.220Z,68.21
2023-05-01T01:08:05.619Z,68.33
2023-05-01T01:10:52.874Z,68.69
2023-05-01T01:13:32.641Z,68.45
2023-05-01T01:16:09.157Z,68.59
2023-05-01T01:18:47.414Z,68.76
2023-05-01T01:21:35.619Z,68.64
2023-05-01T01:24:11.146Z,69.47
2023-05-01T01:27:03.554Z,69.53
2023-05-01T01:29:51.939Z,69.30
2023-05-01T01:32:33.518Z,69.38
2023-05-01T01:35:04.831Z,69.49
2023-05-01T01:38:09.312Z,68.68
2023-05-01T01:40:40.180Z,69.39
2023-05-01T01:43:10.483Z,70.80
2023-05-01T01:45:41.215Z,71.11
2023-05-01T01:48:13.032Z,71.73
2023-05-01T01:50:42.305Z,72.57
2023-05-01T01:53:13.037Z,72.04
2023-05-01T01:55:43.298Z,72.03
2023-05-01T01:58:13.211Z,71.88
2023-05-01T02:00:42.094Z,71.44
2023-05-01T02:03:10.435Z,70.94
2023-05-01T02:05:40.407Z,71.57
2023-05-01T02:08:08.443Z,71.66
2023-05-01T02:10:36.990Z,72.28
2023-05-01T02:13:04.517Z,71.59
2023-05-01T02:15:32.630Z,72.14
2023-05-01T02:18:05.470Z,71.96
2023-05-01T02:20:33.419Z,71.99
2023-05-01T02:23:00.471Z,71.99
2023-05-01T02:25:30.454Z,71.96
2023-05-01T02:28:01.704Z,72.85
2023-05-01T02:30:28.442Z,72.80
2023-05-01T02:32:56.235Z,73.06
2023-05-01T02:35:23.236Z,73.03
2023-05-01T02:37:49.890Z,72.29
2023-05-01T02:40:16.778Z,72.05
2023-05-01T02:42:44.858Z,71.60
2023-05-01T02:45:19.542Z,71.28
2023-05-01T02:47:50.489Z,71.27
2023-05-01T02:50:17.495Z,70.91
2023-05-01T02:52:45.292Z,71.47
2023-05-01T02:55:32.878Z,70.47
2023-05-01T02:57:59.900Z,70.00
2023-05-01T03:00:27.709Z,70.45
2023-05-01T03:02:54.839Z,70.72
2023-05-01T03:05:21.352Z,70.44
2023-05-01T03:07:48.351Z,70.67
2023-05-01T03:10:14.927Z,71.14
2023-05-01T03:12:41.958Z,70.66
2023-05-01T03:15:09.325Z,71.26
2023-05-01T03:17:35.832Z,70.77
2023-05-01T03:20:02.394Z,70.57
2023-05-01T03:22:29.755Z,70.71
2023-05-01T03:24:56.170Z,70.90
2023-05-01T03:27:22.609Z,70.63
2023-05-01T03:29:49.763Z,71.18
2023-05-01T03:32:17.710Z,71.98
2023-05-01T03:34:45.648Z,72.80
2023-05-01T03:37:12.803Z,73.29
2023-05-01T03:39:39.569Z,73.27
2023-05-01T03:42:24.756Z,72.98
2023-05-01T03:44:57.296Z,72.94
2023-05-01T03:47:24.464Z,72.45
2023-05-01T03:49:50.914Z,72.89
2023-05-01T03:52:17.390Z,72.97
2023-05-01T03:54:44.612Z,73.43
2023-05-01T03:57:21.177Z,73.08
2023-05-01T03:59:47.957Z,72.40
2023-05-01T04:02:14.631Z,72.21
2023-05-01T04:04:41.997Z,72.06
2023-05-01T04:07:08.496Z,72.61
2023-05-01T04:09:35.572Z,71.81
2023-05-01T04:12:05.778Z,72.41
2023-05-01T04:14:32.340Z,72.62
2023-05-01T04:16:59.335Z,72.89
2023-05-01T04:19:27.226Z,71.85
2023-05-01T04:21:57.832Z,72.23
2023-05-01T04:24:25.592Z,72.38
2023-05-01T04:26:53.569Z,72.03
2023-05-01T04:29:20.201Z,72.08
2023-05-01T04:31:46.680Z,71.87
2023-05-01T04:34:13.163Z,71.48
2023-05-01T04:36:39.858Z,71.19
2023-05-01T04:39:06.710Z,71.07
2023-05-01T04:41:33.402Z,70.97
2023-05-01T04:44:00.173Z,70.98
2023-05-01T04:46:26.845Z,70.80
2023-05-01T04:48:53.804Z,70.67
2023-05-01T04:51:20.528Z,70.63
2023-05-01T04:53:47.324Z,70.38
2023-05-01T04:56:22.847Z,70.72
2023-05-01T04:58:52.799Z,70.87
2023-05-01T05:01:24.730Z,70.42
2023-05-01T05:03:52.238Z,70.21
2023-05-01T05:06:19.274Z,69.40
2023-05-01T05:08:45.702Z,69.21
2023-05-01T05:11:12.598Z,70.17
2023-05-01T05:13:48.757Z,70.08
2023-05-01T05:16:15.764Z,69.55
2023-05-01T05:18:42.558Z,69.90
2023-05-01T05:21:10.380Z,69.42
2023-05-01T05:23:38.292Z,69.03
2023-05-01T05:26:05.891Z,68.19
2023-05-01T05:28:32.427Z,68.28
2023-05-01T05:30:58.995Z,68.45
2023-05-01T05:33:26.125Z,67.32
2023-05-01T05:35:53.067Z,67.01
2023-05-01T05:38:23.906Z,67.35
2023-05-01T05:40:54.588Z,66.75
2023-05-01T05:43:21.961Z,65.82
2023-05-01T05:45:48.921Z,66.56
2023-05-01T05:48:15.502Z,65.03
2023-05-01T05:50:42.057Z,64.74
2023-05-01T05:53:09.917Z,64.87
2023-05-01T05:55:37.278Z,63.67
2023-05-01T05:58:06.665Z,62.80
2023-05-01T06:00:33.531Z,62.73
2023-05-01T06:03:04.203Z,62.36
2023-05-01T06:05:32.416Z,62.32
2023-05-01T06:07:59.024Z,60.46
2023-05-01T06:10:25.479Z,59.64
2023-05-01T06:13:02.866Z,59.78
2023-05-01T06:15:38.737Z,59.83
2023-05-01T06:18:06.110Z,59.65
2023-05-01T06:20:32.648Z,59.65
2023-05-01T06:22:59.229Z,59.33
2023-05-01T06:25:32.626Z,59.72
2023-05-01T06:27:59.281Z,59.66
2023-05-01T06:30:25.973Z,56.93
2023-05-01T06:32:52.934Z,57.43
2023-05-01T06:35:20.933Z,56.36
2023-05-01T06:37:47.491Z,57.32
2023-05-01T06:40:14.169Z,56.56
2023-05-01T06:42:42.150Z,55.87
2023-05-01T06:45:09.148Z,56.12
2023-05-01T06:47:35.824Z,56.42
2023-05-01T06:50:06.140Z,56.03
2023-05-01T06:52:33.309Z,55.92
2023-05-01T06:54:59.760Z,55.24
2023-05-01T06:57:26.314Z,55.22
2023-05-01T06:59:54.152Z,55.87
2023-05-01T07:02:21.077Z,55.44
2023-05-01T07:04:47.660Z,55.49
2023-05-01T07:07:14.169Z,55.28
2023-05-01T07:09:41.497Z,55.61
2023-05-01T07:12:08.609Z,55.18
2023-05-01T07:14:36.033Z,55.01
2023-05-01T07:17:03.456Z,54.60
2023-05-01T07:19:29.972Z,54.38
2023-05-01T07:21:56.367Z,53.82
2023-05-01T07:24:22.797Z,53.29
2023-05-01T07:26:49.224Z,52.33
2023-05-01T07:29:16.489Z,52.51
2023-05-01T07:31:43.502Z,52.51
2023-05-01T07:34:10.227Z,51.13
2023-05-01T07:36:36.754Z,50.96
2023-05-01T07:39:04.085Z,50.85
2023-05-01T07:41:31.416Z,50.85
2023-05-01T07:44:01.068Z,50.11
2023-05-01T07:46:27.779Z,49.59
2023-05-01T07:48:54.468Z,49.49
2023-05-01T07:51:21.104Z,49.16
2023-05-01T07:53:48.612Z,48.56
2023-05-01T07:56:15.204Z,48.18
2023-05-01T07:58:42.569Z,48.42
2023-05-01T08:01:09.145Z,48.60
2023-05-01T08:03:36.222Z,48.96
2023-05-01T08:06:02.779Z,48.73
2023-05-01T08:08:29.330Z,48.88
2023-05-01T08:10:56.183Z,48.43
2023-05-01T08:13:22.784Z,47.99
2023-05-01T08:15:49.388Z,47.95
2023-05-01T08:18:20.212Z,48.25
2023-05-01T08:20:50.107Z,47.82
2023-05-01T08:23:17.488Z,47.67
2023-05-01T08:25:47.371Z,47.63
2023-05-01T08:28:14.794Z,46.82
2023-05-01T08:30:41.243Z,46.86
2023-05-01T08:33:07.918Z,46.37
2023-05-01T08:35:34.433Z,46.87
2023-05-01T08:38:01.603Z,46.15
2023-05-01T08:40:33.214Z,46.06
2023-05-01T08:43:00.936Z,45.94
2023-05-01T08:45:27.689Z,45.78
2023-05-01T08:47:55.298Z,46.62
2023-05-01T08:50:23.324Z,46.31
2023-05-01T08:52:52.777Z,46.53
2023-05-01T08:55:20.457Z,45.89
2023-05-01T08:57:48.540Z,46.11
2023-05-01T09:00:19.457Z,45.83
2023-05-01T09:02:48.371Z,45.33
2023-05-01T09:05:19.640Z,44.81
2023-05-01T09:07:46.981Z,44.92
2023-05-01T09:10:17.150Z,45.04
2023-05-01T09:12:46.847Z,44.85
2023-05-01T09:15:14.067Z,45.31
2023-05-01T09:17:42.578Z,45.50
2023-05-01T09:20:10.472Z,44.91
2023-05-01T09:22:37.370Z,44.43
2023-05-01T09:25:04.312Z,43.96
2023-05-01T09:27:35.879Z,43.78
2023-05-01T09:30:03.375Z,44.36
2023-05-01T09:32:29.976Z,44.44
2023-05-01T09:35:12.441Z,43.61
2023-05-01T09:37:39.285Z,42.61
2023-05-01T09:40:06.477Z,42.09
2023-05-01T09:42:34.536Z,42.52
2023-05-01T09:45:03.571Z,42.52
2023-05-01T09:47:30.572Z,42.20
2023-05-01T09:49:59.671Z,41.03
2023-05-01T09:52:28.069Z,40.36
2023-05-01T09:55:16.519Z,41.16
2023-05-01T09:57:45.221Z,40.45
2023-05-01T10:00:15.419Z,40.08
2023-05-01T10:02:47.657Z,40.70
2023-05-01T10:05:15.470Z,40.98
2023-05-01T10:08:14.808Z,40.84
2023-05-01T10:10:43.648Z,40.78
2023-05-01T10:13:15.065Z,40.17
2023-05-01T10:15:41.699Z,40.75
2023-05-01T10:18:11.462Z,41.26
2023-05-01T10:20:38.038Z,42.02
2023-05-01T10:23:04.565Z,40.73
2023-05-01T10:25:32.321Z,40.45
2023-05-01T10:27:59.441Z,40.54
2023-05-01T10:30:26.260Z,39.42
2023-05-01T10:32:53.070Z,39.92
2023-05-01T10:35:25.818Z,39.05
2023-05-01T10:38:00.881Z,39.26
2023-05-01T10:40:39.449Z,39.08
2023-05-01T10:43:31.349Z,38.52
2023-05-01T10:46:07.359Z,38.80
2023-05-01T10:48:40.246Z,38.61
2023-05-01T10:51:13.183Z,38.11
2023-05-01T10:53:41.163Z,38.62
2023-05-01T10:56:26.946Z,39.19
2023-05-01T10:58:53.300Z,38.16
2023-05-01T11:01:37.639Z,37.80
2023-05-01T11:04:04.976Z,37.56
2023-05-01T11:06:32.950Z,37.77
2023-05-01T11:09:00.542Z,38.13
2023-05-01T11:11:27.964Z,37.61
2023-05-01T11:14:06.530Z,36.86
2023-05-01T11:16:39.493Z,36.99
2023-05-01T11:19:33.124Z,36.83
2023-05-01T11:22:00.512Z,36.73
2023-05-01T11:24:33.254Z,36.99
2023-05-01T11:27:02.615Z,37.43
2023-05-01T11:29:32.825Z,36.08
2023-05-01T11:32:00.697Z,36.11
2023-05-01T11:34:27.580Z,35.89
2023-05-01T11:36:54.284Z,36.99
2023-05-01T11:39:22.040Z,36.27
2023-05-01T11:41:48.612Z,36.08
2023-05-01T11:44:16.764Z,36.64
2023-05-01T11:46:43.277Z,34.91
2023-05-01T11:49:11.026Z,35.13
2023-05-01T11:51:37.645Z,34.22
2023-05-01T11:54:06.594Z,34.57
2023-05-01T11:56:34.221Z,33.08
2023-05-01T11:59:15.512Z,34.43
2023-05-01T12:01:44.600Z,33.72
2023-05-01T12:04:12.960Z,30.84
2023-05-01T12:06:47.030Z,29.69
2023-05-01T12:09:20.194Z,29.86
2023-05-01T12:11:52.309Z,30.11
2023-05-01T12:14:21.473Z,30.31
2023-05-01T12:16:48.552Z,32.20
2023-05-01T12:19:15.922Z,30.34
2023-05-01T12:21:42.991Z,31.18
2023-05-01T12:24:16.940Z,30.01
2023-05-01T12:26:45.477Z,29.55
2023-05-01T12:29:12.294Z,29.42
2023-05-01T12:31:50.012Z,29.72
2023-05-01T12:34:16.548Z,30.01
2023-05-01T12:36:54.413Z,30.93
2023-05-01T12:39:21.991Z,32.05
2023-05-01T12:41:49.516Z,31.85
2023-05-01T12:44:27.343Z,32.92
2023-05-01T12:46:59.516Z,32.63
2023-05-01T12:49:27.483Z,32.67
2023-05-01T12:51:55.923Z,32.25
2023-05-01T12:54:30.330Z,32.97
2023-05-01T12:57:06.725Z,32.20
2023-05-01T12:59:33.220Z,32.01
2023-05-01T13:02:05.413Z,31.83
2023-05-01T13:04:32.351Z,31.75
2023-05-01T13:06:59.726Z,32.06
2023-05-01T13:09:30.670Z,32.33
2023-05-01T13:12:05.069Z,33.07
2023-05-01T13:14:40.306Z,33.33
2023-05-01T13:17:10.540Z,33.80
2023-05-01T13:19:37.806Z,33.64
2023-05-01T13:22:05.392Z,34.51
2023-05-01T13:24:39.503Z,34.02
2023-05-01T13:27:08.602Z,34.44
2023-05-01T13:29:35.455Z,33.69
2023-05-01T13:32:06.534Z,33.35
2023-05-01T13:34:34.317Z,34.38
2023-05-01T13:37:01.632Z,33.55
2023-05-01T13:39:28.770Z,32.60
2023-05-01T13:41:55.434Z,32.96
2023-05-01T13:44:22.303Z,34.37
2023-05-01T13:46:49.797Z,33.04
2023-05-01T13:49:20.604Z,33.86
2023-05-01T13:51:48.696Z,34.14
2023-05-01T13:54:16.557Z,34.30
2023-05-01T13:56:43.071Z,33.69
2023-05-01T13:59:10.597Z,32.56
2023-05-01T14:01:45.977Z,32.89
2023-05-01T14:04:21.188Z,32.78
2023-05-01T14:06:48.591Z,31.87
2023-05-01T14:09:18.346Z,31.48
2023-05-01T14:11:46.829Z,31.60
2023-05-01T14:14:17.786Z,31.62
2023-05-01T14:16:48.933Z,31.96
2023-05-01T14:19:18.033Z,32.38
2023-05-01T14:21:44.467Z,32.16
2023-05-01T14:24:11.289Z,33.01
2023-05-01T14:26:43.487Z,33.11
2023-05-01T14:29:23.744Z,32.78
2023-05-01T14:31:51.492Z,32.69
2023-05-01T14:34:19.082Z,33.47
2023-05-01T14:36:45.464Z,33.00
2023-05-01T14:39:12.411Z,32.98
2023-05-01T14:41:42.609Z,32.58
2023-05-01T14:44:17.786Z,33.28
2023-05-01T14:46:47.400Z,32.70
2023-05-01T14:49:22.389Z,33.14
2023-05-01T14:51:49.432Z,32.78
2023-05-01T14:54:16.301Z,33.15
2023-05-01T14:56:43.804Z,32.94
2023-05-01T14:59:10.785Z,33.69
2023-05-01T15:01:37.238Z,33.32
2023-05-01T15:04:06.439Z,34.41
2023-05-01T15:06:34.158Z,34.18
2023-05-01T15:09:00.912Z,34.90
2023-05-01T15:11:30.410Z,34.58
2023-05-01T15:13:56.837Z,34.45
2023-05-01T15:16:23.592Z,35.69
2023-05-01T15:18:50.146Z,34.72
2023-05-01T15:21:16.575Z,34.89
2023-05-01T15:23:45.096Z,35.25
2023-05-01T15:26:12.042Z,35.02
2023-05-01T15:28:38.749Z,35.23
2023-05-01T15:31:05.882Z,35.17
2023-05-01T15:33:32.338Z,34.36
2023-05-01T15:35:58.797Z,34.16
2023-05-01T15:38:26.039Z,33.68
2023-05-01T15:40:53.928Z,33.57
2023-05-01T15:43:22.263Z,33.83
2023-05-01T15:45:49.485Z,33.26
2023-05-01T15:48:16.053Z,33.85
2023-05-01T15:50:42.515Z,33.71
2023-05-01T15:53:09.025Z,34.23
2023-05-01T15:55:36.783Z,34.53
2023-05-01T15:58:03.514Z,34.12
2023-05-01T16:00:29.889Z,34.52
2023-05-01T16:02:56.367Z,35.72
2023-05-01T16:05:22.916Z,36.09
2023-05-01T16:07:54.252Z,35.76
2023-05-01T16:10:20.939Z,36.71
2023-05-01T16:12:47.387Z,35.11
2023-05-01T16:15:14.773Z,34.58
2023-05-01T16:17:43.604Z,34.35
2023-05-01T16:20:12.061Z,35.02
2023-05-01T16:22:43.239Z,35.20
2023-05-01T16:25:10.851Z,35.37
2023-05-01T16:27:41.273Z,34.99
2023-05-01T16:30:09.080Z,36.16
2023-05-01T16:32:35.925Z,36.00
2023-05-01T16:35:03.837Z,35.54
2023-05-01T16:37:30.294Z,35.46
2023-05-01T16:40:00.980Z,35.90
2023-05-01T16:42:27.799Z,35.74
2023-05-01T16:44:54.373Z,36.09
2023-05-01T16:47:20.900Z,36.89
2023-05-01T16:49:47.335Z,37.00
2023-05-01T16:52:15.515Z,37.70
2023-05-01T16:54:42.155Z,37.65
2023-05-01T16:57:08.889Z,38.36
2023-05-01T16:59:35.365Z,38.46
2023-05-01T17:02:05.745Z,38.42
2023-05-01T17:04:32.497Z,39.25
2023-05-01T17:06:59.090Z,39.56
2023-05-01T17:09:26.401Z,40.11
2023-05-01T17:11:56.485Z,40.44
2023-05-01T17:14:23.095Z,41.07
2023-05-01T17:16:50.508Z,41.54
2023-05-01T17:19:17.323Z,42.00
2023-05-01T17:21:43.785Z,41.93
2023-05-01T17:24:10.274Z,42.41
2023-05-01T17:26:36.945Z,43.30
2023-05-01T17:29:03.586Z,43.43
2023-05-01T17:31:30.096Z,44.19
2023-05-01T17:33:56.513Z,44.77
2023-05-01T17:36:23.791Z,45.35
2023-05-01T17:38:50.389Z,45.25
2023-05-01T17:41:17.094Z,45.51
2023-05-01T17:43:44.729Z,45.31
2023-05-01T17:46:11.648Z,45.77
2023-05-01T17:48:38.176Z,46.01
2023-05-01T17:51:04.607Z,46.18
2023-05-01T17:53:31.149Z,46.70
2023-05-01T17:55:58.409Z,47.29
2023-05-01T17:58:24.856Z,46.74
2023-05-01T18:00:51.775Z,47.29
2023-05-01T18:03:18.437Z,48.00
2023-05-01T18:05:44.925Z,48.69
2023-05-01T18:08:11.514Z,48.53
2023-05-01T18:10:38.086Z,48.53
2023-05-01T18:13:08.124Z,49.03
2023-05-01T18:15:34.599Z,48.88
2023-05-01T18:18:01.046Z,48.43
2023-05-01T18:20:28.747Z,47.99
2023-05-01T18:22:55.331Z,48.48
2023-05-01T18:25:22.355Z,48.49
2023-05-01T18:27:49.059Z,48.45
2023-05-01T18:30:15.498Z,48.35
2023-05-01T18:32:48.271Z,48.73
2023-05-01T18:35:16.639Z,49.33
2023-05-01T18:37:43.972Z,49.59
2023-05-01T18:40:11.364Z,50.82
2023-05-01T18:42:39.471Z,51.54
2023-05-01T18:45:07.203Z,52.15
2023-05-01T18:47:33.661Z,52.90
2023-05-01T18:50:00.203Z,52.79
2023-05-01T18:52:29.377Z,53.55
2023-05-01T18:54:55.822Z,53.77
2023-05-01T18:57:22.868Z,53.72
2023-05-01T18:59:49.286Z,54.80
2023-05-01T19:02:15.668Z,54.85
2023-05-01T19:04:56.066Z,54.63
2023-05-01T19:07:23.662Z,54.92
2023-05-01T19:09:50.208Z,54.99
2023-05-01T19:12:16.607Z,55.53
2023-05-01T19:14:43.227Z,55.62
2023-05-01T19:17:09.825Z,55.46
2023-05-01T19:19:36.525Z,55.62
2023-05-01T19:22:03.046Z,55.78
2023-05-01T19:24:29.462Z,55.61
2023-05-01T19:26:55.862Z,55.87
2023-05-01T19:29:22.401Z,56.24
2023-05-01T19:31:48.905Z,56.99
2023-05-01T19:34:15.365Z,57.67
2023-05-01T19:36:41.814Z,57.65
2023-05-01T19:39:08.368Z,58.52
2023-05-01T19:41:34.878Z,58.55
2023-05-01T19:44:01.447Z,58.69
2023-05-01T19:46:28.042Z,58.81
2023-05-01T19:48:54.525Z,58.61
2023-05-01T19:51:21.260Z,58.76
2023-05-01T19:53:47.687Z,59.13
2023-05-01T19:56:14.080Z,59.31
2023-05-01T19:58:40.867Z,58.77
2023-05-01T20:01:09.273Z,57.11
2023-05-01T20:03:36.015Z,57.24
2023-05-01T20:06:03.244Z,55.84
2023-05-01T20:08:29.717Z,55.31
2023-05-01T20:10:56.721Z,56.10
2023-05-01T20:13:23.333Z,56.20
2023-05-01T20:15:51.102Z,56.20
2023-05-01T20:18:17.970Z,56.45
2023-05-01T20:20:44.432Z,56.52
2023-05-01T20:23:16.204Z,55.95
2023-05-01T20:25:43.377Z,56.65
2023-05-01T20:28:11.055Z,57.11
2023-05-01T20:30:42.855Z,56.72
2023-05-01T20:33:09.428Z,56.48
2023-05-01T20:35:36.491Z,56.59
2023-05-01T20:38:04.401Z,56.72
2023-05-01T20:40:31.881Z,57.01
2023-05-01T20:43:01.947Z,57.26
2023-05-01T20:45:31.598Z,57.80
2023-05-01T20:47:58.581Z,57.08
2023-05-01T20:50:29.217Z,55.58
2023-05-01T20:52:56.181Z,55.38
2023-05-01T20:55:23.678Z,56.39
2023-05-01T20:57:50.354Z,57.18
2023-05-01T21:00:17.223Z,57.59
2023-05-01T21:02:43.865Z,58.35
2023-05-01T21:05:10.990Z,58.09
2023-05-01T21:07:41.034Z,58.78
2023-05-01T21:10:10.093Z,59.01
2023-05-01T21:12:36.970Z,58.42
2023-05-01T21:15:04.489Z,58.07
2023-05-01T21:17:32.968Z,57.94
2023-05-01T21:19:59.739Z,57.93
2023-05-01T21:22:26.993Z,57.92
2023-05-01T21:24:55.757Z,57.44
2023-05-01T21:27:24.150Z,57.46
2023-05-01T21:30:00.946Z,56.55
2023-05-01T21:32:33.282Z,56.34
2023-05-01T21:35:00.637Z,55.93
2023-05-01T21:37:29.099Z,55.81
2023-05-01T21:39:58.944Z,55.52
2023-05-01T21:42:39.240Z,56.04
2023-05-01T21:45:10.984Z,56.30
2023-05-01T21:47:39.540Z,57.02
2023-05-01T21:50:07.670Z,56.64
2023-05-01T21:52:37.189Z,57.49
2023-05-01T21:55:09.212Z,58.02
2023-05-01T21:57:36.927Z,59.37
2023-05-01T22:00:05.012Z,58.83
2023-05-01T22:02:47.898Z,59.85
2023-05-01T22:05:17.909Z,60.31
2023-05-01T22:07:46.243Z,60.66
2023-05-01T22:10:40.542Z,61.00
2023-05-01T22:13:07.124Z,61.59
2023-05-01T22:15:38.627Z,61.86
2023-05-01T22:18:05.131Z,62.06
2023-05-01T22:20:32.253Z,61.97
2023-05-01T22:22:58.706Z,62.41
2023-05-01T22:25:25.478Z,62.52
2023-05-01T22:27:52.277Z,62.96
2023-05-01T22:30:18.648Z,63.08
2023-05-01T22:32:45.056Z,63.13
2023-05-01T22:35:11.813Z,63.53
2023-05-01T22:37:38.357Z,63.49
2023-05-01T22:40:05.552Z,63.64
2023-05-01T22:42:32.078Z,64.34
2023-05-01T22:44:58.451Z,64.23
2023-05-01T22:47:24.903Z,65.11
2023-05-01T22:49:51.615Z,65.43
2023-05-01T22:52:18.190Z,65.00
2023-05-01T22:54:44.610Z,64.87
2023-05-01T22:57:11.269Z,65.15
2023-05-01T22:59:39.478Z,64.93
2023-05-01T23:02:06.036Z,65.17
2023-05-01T23:04:32.527Z,64.68
2023-05-01T23:06:59.106Z,64.77
2023-05-01T23:09:26.325Z,64.80
2023-05-01T23:11:52.745Z,64.51
2023-05-01T23:14:19.696Z,64.84
2023-05-01T23:16:46.100Z,64.61
2023-05-01T23:19:21.792Z,64.12
2023-05-01T23:21:49.758Z,64.79
2023-05-01T23:24:18.225Z,64.60
2023-05-01T23:26:44.883Z,64.95
2023-05-01T23:29:13.410Z,64.57
2023-05-01T23:31:45.288Z,64.69
2023-05-01T23:34:15.366Z,64.84
2023-05-01T23:36:44.396Z,64.24
2023-05-01T23:39:11.183Z,65.08
2023-05-01T23:41:38.185Z,65.06
2023-05-01T23:44:04.843Z,64.80
2023-05-01T23:46:31.431Z,65.17
2023-05-01T23:48:57.866Z,65.58
2023-05-01T23:51:24.357Z,65.19
2023-05-01T23:53:50.871Z,65.57
2023-05-01T23:56:17.376Z,66.10
2023-05-01T23:58:43.757Z,66.45
